createdAt,value
2018-08-13T00:01:29.092Z,36.50
2018-08-13T00:03:58.098Z,37.00
2018-08-13T00:06:26.356Z,36.90
2018-08-13T00:08:54.595Z,36.60
2018-08-13T00:11:22.811Z,35.60
2018-08-13T00:13:51.826Z,36.10
2018-08-13T00:16:20.054Z,35.90
2018-08-13T00:18:48.301Z,36.10
2018-08-13T00:21:16.584Z,34.70
2018-08-13T00:23:44.781Z,35.00
2018-08-13T00:26:13.035Z,34.80
2018-08-13T00:28:41.316Z,34.20
2018-08-13T00:31:09.519Z,34.60
2018-08-13T00:33:37.793Z,34.20
2018-08-13T00:36:06.016Z,34.40
2018-08-13T00:38:34.291Z,35.40
2018-08-13T00:41:02.503Z,35.10
2018-08-13T00:43:31.045Z,35.50
2018-08-13T00:46:00.060Z,35.60
2018-08-13T00:48:28.264Z,35.40
2018-08-13T00:50:56.498Z,34.80
2018-08-13T00:53:25.448Z,36.50
2018-08-13T00:55:53.687Z,36.40
2018-08-13T00:58:21.898Z,35.20
2018-08-13T01:00:50.147Z,35.30
2018-08-13T01:03:18.499Z,35.50
2018-08-13T01:05:46.696Z,42.40
2018-08-13T01:08:14.923Z,38.70
2018-08-13T01:10:43.912Z,36.40
2018-08-13T01:13:12.128Z,36.30
2018-08-13T01:15:40.333Z,36.50
2018-08-13T01:18:08.608Z,36.00
2018-08-13T01:20:36.864Z,36.50
2018-08-13T01:23:05.105Z,35.70
2018-08-13T01:25:34.083Z,35.80
2018-08-13T01:28:02.291Z,36.00
2018-08-13T01:30:30.519Z,38.30
2018-08-13T01:32:58.741Z,36.40
2018-08-13T01:35:26.964Z,41.30
2018-08-13T01:37:55.224Z,37.40
2018-08-13T01:40:23.494Z,36.70
2018-08-13T01:42:51.692Z,39.90
2018-08-13T01:45:19.964Z,38.00
2018-08-13T01:47:48.162Z,36.00
2018-08-13T01:50:16.467Z,35.80
2018-08-13T01:52:44.698Z,36.00
2018-08-13T01:55:12.906Z,37.20
2018-08-13T01:57:41.890Z,36.30
2018-08-13T02:00:10.094Z,36.40
2018-08-13T02:02:38.363Z,37.40
2018-08-13T02:05:07.323Z,39.60
2018-08-13T02:07:35.551Z,39.60
2018-08-13T02:10:03.812Z,38.10
2018-08-13T02:12:32.789Z,37.70
2018-08-13T02:15:01.813Z,38.10
2018-08-13T02:17:30.030Z,37.80
2018-08-13T02:19:58.284Z,38.50
2018-08-13T02:22:26.542Z,39.00
2018-08-13T02:24:54.793Z,37.30
2018-08-13T02:27:23.821Z,38.90
2018-08-13T02:29:52.031Z,38.60
2018-08-13T02:32:20.236Z,37.30
2018-08-13T02:34:49.232Z,41.50
2018-08-13T02:37:18.212Z,37.40
2018-08-13T02:39:46.437Z,37.30
2018-08-13T02:42:14.643Z,38.80
2018-08-13T02:44:42.862Z,38.50
2018-08-13T02:47:11.886Z,43.00
2018-08-13T02:49:40.131Z,42.90
2018-08-13T02:52:09.150Z,39.70
2018-08-13T02:54:37.379Z,39.70
2018-08-13T02:57:05.631Z,42.80
2018-08-13T02:59:33.881Z,39.00
2018-08-13T03:02:02.184Z,45.30
2018-08-13T03:04:30.456Z,45.20
2018-08-13T03:06:58.594Z,40.50
2018-08-13T03:09:26.847Z,39.10
2018-08-13T03:11:55.099Z,38.20
2018-08-13T03:14:23.295Z,37.50
2018-08-13T03:16:51.567Z,37.70
2018-08-13T03:19:19.816Z,37.50
2018-08-13T03:21:48.035Z,37.60
2018-08-13T03:24:17.047Z,38.20
2018-08-13T03:26:45.325Z,38.60
2018-08-13T03:29:14.332Z,38.70
2018-08-13T03:31:42.548Z,38.70
2018-08-13T03:34:10.877Z,38.70
2018-08-13T03:36:39.823Z,38.00
2018-08-13T03:39:08.048Z,38.00
2018-08-13T03:41:36.306Z,38.30
2018-08-13T03:44:04.559Z,37.60
2018-08-13T03:46:32.811Z,40.40
2018-08-13T03:49:01.027Z,39.10
2018-08-13T03:51:30.044Z,39.00
2018-08-13T03:53:59.075Z,43.60
2018-08-13T03:56:27.324Z,43.80
2018-08-13T03:58:55.526Z,41.70
2018-08-13T04:01:23.754Z,44.70
2018-08-13T04:03:52.722Z,41.20
2018-08-13T04:06:21.008Z,41.30
2018-08-13T04:08:49.260Z,39.80
2018-08-13T04:11:17.464Z,39.90
2018-08-13T04:13:45.668Z,43.10
2018-08-13T04:16:13.897Z,52.10
2018-08-13T04:18:42.106Z,41.20
2018-08-13T04:21:11.124Z,39.30
2018-08-13T04:23:39.395Z,39.20
2018-08-13T04:26:08.398Z,39.40
2018-08-13T04:28:36.620Z,39.40
2018-08-13T04:31:04.846Z,39.40
2018-08-13T04:33:33.065Z,39.20
2018-08-13T04:36:01.331Z,39.50
2018-08-13T04:38:29.629Z,39.10
2018-08-13T04:40:57.798Z,40.50
2018-08-13T04:43:26.065Z,39.10
2018-08-13T04:45:54.258Z,38.90
2018-08-13T04:48:22.533Z,40.50
2018-08-13T04:50:50.758Z,49.70
2018-08-13T04:53:18.969Z,50.10
2018-08-13T04:55:47.204Z,48.20
2018-08-13T04:58:15.418Z,43.60
2018-08-13T05:00:43.636Z,45.90
2018-08-13T05:03:12.656Z,41.30
2018-08-13T05:05:40.851Z,41.20
2018-08-13T05:08:09.114Z,51.50
2018-08-13T05:10:37.403Z,45.00
2018-08-13T05:13:05.648Z,43.80
2018-08-13T05:15:34.694Z,41.40
2018-08-13T05:18:02.912Z,41.40
2018-08-13T05:20:31.901Z,42.70
2018-08-13T05:23:00.887Z,40.90
2018-08-13T05:25:29.159Z,41.00
2018-08-13T05:27:57.397Z,41.30
2018-08-13T05:30:25.686Z,44.40
2018-08-13T05:32:53.824Z,46.50
2018-08-13T05:35:22.090Z,46.20
2018-08-13T05:37:51.110Z,51.40
2018-08-13T05:40:19.322Z,51.90
2018-08-13T05:42:47.543Z,48.20
2018-08-13T05:45:16.037Z,47.70
2018-08-13T05:47:44.255Z,53.80
2018-08-13T05:50:12.480Z,50.60
2018-08-13T05:52:40.746Z,51.70
2018-08-13T05:55:10.014Z,44.90
2018-08-13T05:57:38.274Z,44.90
2018-08-13T06:00:06.525Z,47.40
2018-08-13T06:02:34.782Z,51.40
2018-08-13T06:05:03.814Z,55.00
2018-08-13T06:07:32.029Z,55.10
2018-08-13T06:10:00.249Z,54.20
2018-08-13T06:12:28.475Z,47.90
2018-08-13T06:14:56.697Z,53.90
2018-08-13T06:17:24.917Z,55.40
2018-08-13T06:19:53.143Z,50.00
2018-08-13T06:22:21.380Z,48.40
2018-08-13T06:24:49.633Z,54.90
2018-08-13T06:27:17.879Z,53.40
2018-08-13T06:29:46.143Z,54.10
2018-08-13T06:32:15.107Z,50.70
2018-08-13T06:34:43.386Z,50.90
2018-08-13T06:37:11.680Z,52.10
2018-08-13T06:39:39.887Z,51.10
2018-08-13T06:42:08.118Z,53.20
2018-08-13T06:44:37.150Z,50.70
2018-08-13T06:47:05.423Z,50.70
2018-08-13T06:49:33.598Z,50.40
2018-08-13T06:52:01.871Z,51.80
2018-08-13T06:54:30.073Z,47.90
2018-08-13T06:56:58.298Z,51.10
2018-08-13T06:59:27.270Z,48.70
2018-08-13T07:01:55.534Z,48.70
2018-08-13T07:04:23.788Z,47.80
2018-08-13T07:06:52.760Z,47.50
2018-08-13T07:09:21.790Z,49.30
2018-08-13T07:11:50.434Z,49.40
2018-08-13T07:14:19.436Z,46.90
2018-08-13T07:16:48.446Z,49.20
2018-08-13T07:19:16.698Z,49.10
2018-08-13T07:21:45.676Z,47.80
2018-08-13T07:24:14.658Z,48.70
2018-08-13T07:26:43.646Z,48.80
2018-08-13T07:29:11.904Z,48.50
2018-08-13T07:31:40.178Z,48.10
2018-08-13T07:34:08.420Z,47.60
2018-08-13T07:36:36.627Z,47.60
2018-08-13T07:39:04.942Z,47.30
2018-08-13T07:41:33.130Z,47.20
2018-08-13T07:44:02.114Z,47.00
2018-08-13T07:46:31.638Z,46.30
2018-08-13T07:48:59.813Z,46.30
2018-08-13T07:51:28.808Z,46.50
2018-08-13T07:53:57.030Z,46.50
2018-08-13T07:56:25.305Z,46.40
2018-08-13T07:58:53.507Z,45.50
2018-08-13T08:01:21.785Z,45.60
2018-08-13T08:03:50.032Z,45.40
2018-08-13T08:06:18.315Z,45.10
2018-08-13T08:08:46.519Z,44.40
2018-08-13T08:11:14.772Z,43.90
2018-08-13T08:13:43.035Z,42.50
2018-08-13T08:16:11.254Z,42.80
2018-08-13T08:18:39.465Z,41.90
2018-08-13T08:21:07.674Z,41.90
2018-08-13T08:23:35.909Z,42.40
2018-08-13T08:26:04.159Z,42.00
2018-08-13T08:28:32.412Z,40.90
2018-08-13T08:31:00.627Z,41.30
2018-08-13T08:33:29.657Z,40.00
2018-08-13T08:35:57.917Z,40.00
2018-08-13T08:38:26.205Z,40.00
2018-08-13T08:40:54.506Z,40.40
2018-08-13T08:43:23.451Z,40.70
2018-08-13T08:45:52.520Z,41.60
2018-08-13T08:48:20.685Z,41.50
2018-08-13T08:50:48.935Z,40.30
2018-08-13T08:53:17.189Z,40.30
2018-08-13T08:55:45.509Z,40.90
2018-08-13T08:58:13.755Z,41.50
2018-08-13T09:00:42.026Z,40.80
2018-08-13T09:03:10.970Z,40.40
2018-08-13T09:05:39.195Z,40.40
2018-08-13T09:08:07.431Z,41.30
2018-08-13T09:10:35.655Z,40.00
2018-08-13T09:13:03.923Z,40.60
2018-08-13T09:15:32.192Z,38.90
2018-08-13T09:18:13.244Z,35.00
2018-08-13T09:20:53.284Z,35.10
2018-08-13T09:26:43.693Z,35.30
2018-08-13T09:29:23.795Z,37.20
2018-08-13T09:32:17.795Z,36.40
2018-08-13T09:34:46.068Z,36.70
2018-08-13T09:37:14.310Z,37.60
2018-08-13T09:39:43.379Z,37.20
2018-08-13T09:42:11.611Z,37.20
2018-08-13T09:44:39.831Z,36.00
2018-08-13T09:47:08.042Z,37.30
2018-08-13T09:49:36.305Z,36.80
2018-08-13T09:52:05.310Z,38.20
2018-08-13T09:54:33.568Z,38.20
2018-08-13T09:57:01.825Z,38.50
2018-08-13T09:59:30.090Z,39.30
2018-08-13T10:01:58.320Z,38.70
2018-08-13T10:04:27.304Z,38.50
2018-08-13T10:06:56.292Z,38.70
2018-08-13T10:09:25.366Z,38.80
2018-08-13T10:11:53.578Z,38.70
2018-08-13T10:14:23.474Z,39.20
2018-08-13T10:16:52.552Z,39.50
2018-08-13T10:19:21.494Z,39.40
2018-08-13T10:21:49.742Z,39.40
2018-08-13T10:24:18.728Z,39.50
2018-08-13T10:26:47.766Z,39.40
2018-08-13T10:29:16.020Z,39.40
2018-08-13T10:31:45.047Z,39.40
2018-08-13T10:34:13.314Z,39.50
2018-08-13T10:36:41.584Z,39.60
2018-08-13T10:39:09.781Z,39.50
2018-08-13T10:41:38.046Z,39.40
2018-08-13T10:44:06.312Z,39.40
2018-08-13T10:46:35.317Z,38.90
2018-08-13T10:49:03.539Z,38.90
2018-08-13T10:51:31.763Z,38.60
2018-08-13T10:54:00.041Z,39.00
2018-08-13T10:56:28.255Z,38.70
2018-08-13T10:58:56.460Z,38.50
2018-08-13T11:01:25.558Z,37.90
2018-08-13T11:03:53.807Z,37.80
2018-08-13T11:06:22.079Z,38.70
2018-08-13T11:08:50.317Z,37.80
2018-08-13T11:11:18.552Z,38.10
2018-08-13T11:13:46.809Z,37.40
2018-08-13T11:16:15.411Z,37.50
2018-08-13T11:18:43.659Z,37.70
2018-08-13T11:21:11.904Z,37.80
2018-08-13T11:23:40.125Z,38.20
2018-08-13T11:26:08.337Z,38.30
2018-08-13T11:28:37.388Z,38.50
2018-08-13T11:31:05.691Z,38.50
2018-08-13T11:33:33.893Z,38.60
2018-08-13T11:36:02.137Z,38.60
2018-08-13T11:38:30.396Z,38.50
2018-08-13T11:40:58.603Z,38.60
2018-08-13T11:43:27.589Z,39.00
2018-08-13T11:45:55.865Z,38.90
2018-08-13T11:48:24.167Z,38.80
2018-08-13T11:50:52.391Z,39.10
2018-08-13T11:53:20.639Z,39.20
2018-08-13T11:55:49.651Z,39.60
2018-08-13T11:58:17.925Z,39.50
2018-08-13T12:00:46.125Z,39.60
2018-08-13T12:03:14.389Z,39.40
2018-08-13T12:05:42.597Z,39.90
2018-08-13T12:08:10.864Z,39.80
2018-08-13T12:10:40.047Z,39.90
2018-08-13T12:13:08.276Z,41.00
2018-08-13T12:15:36.505Z,41.60
2018-08-13T12:18:04.765Z,41.60
2018-08-13T12:20:32.965Z,41.20
2018-08-13T12:23:01.170Z,41.00
2018-08-13T12:25:30.179Z,41.00
2018-08-13T12:27:58.432Z,41.00
2018-08-13T12:30:26.710Z,43.30
2018-08-13T12:32:54.960Z,42.50
2018-08-13T12:35:23.152Z,42.30
2018-08-13T12:37:51.382Z,42.40
2018-08-13T12:40:19.591Z,41.80
2018-08-13T12:42:47.839Z,42.50
2018-08-13T12:45:16.133Z,42.50
2018-08-13T12:47:44.428Z,42.70
2018-08-13T12:50:12.631Z,43.20
2018-08-13T12:52:41.653Z,43.70
2018-08-13T12:55:09.884Z,43.80
2018-08-13T12:57:38.089Z,42.70
2018-08-13T13:00:06.355Z,42.60
2018-08-13T13:02:35.390Z,45.20
2018-08-13T13:05:04.214Z,45.10
2018-08-13T13:07:32.478Z,43.40
2018-08-13T13:10:00.718Z,42.50
2018-08-13T13:12:29.694Z,45.30
2018-08-13T13:14:58.714Z,44.00
2018-08-13T13:17:26.981Z,44.00
2018-08-13T13:19:55.242Z,44.20
2018-08-13T13:22:24.260Z,42.90
2018-08-13T13:24:52.475Z,42.80
2018-08-13T13:27:20.735Z,47.40
2018-08-13T13:29:48.961Z,44.20
2018-08-13T13:32:17.935Z,47.80
2018-08-13T13:34:46.243Z,47.70
2018-08-13T13:37:14.389Z,44.10
2018-08-13T13:39:42.622Z,47.10
2018-08-13T13:42:10.886Z,45.40
2018-08-13T13:44:39.093Z,44.20
2018-08-13T13:47:07.355Z,44.60
2018-08-13T13:49:35.561Z,44.00
2018-08-13T13:52:03.799Z,44.30
2018-08-13T13:54:32.005Z,43.40
2018-08-13T13:57:00.231Z,44.40
2018-08-13T13:59:28.489Z,44.30
2018-08-13T14:01:56.699Z,44.10
2018-08-13T14:04:24.912Z,44.00
2018-08-13T14:06:53.168Z,45.70
2018-08-13T14:09:21.397Z,44.00
2018-08-13T14:11:50.384Z,44.00
2018-08-13T14:14:18.584Z,44.00
2018-08-13T14:16:46.895Z,45.00
2018-08-13T14:19:15.177Z,43.70
2018-08-13T14:21:43.408Z,43.70
2018-08-13T14:24:11.680Z,44.90
2018-08-13T14:26:40.670Z,45.50
2018-08-13T14:29:09.645Z,47.40
2018-08-13T14:31:37.912Z,47.40
2018-08-13T14:34:06.175Z,45.70
2018-08-13T14:36:34.390Z,45.70
2018-08-13T14:39:03.382Z,46.20
2018-08-13T14:41:32.400Z,45.90
2018-08-13T14:44:00.656Z,45.90
2018-08-13T14:46:29.630Z,46.60
2018-08-13T14:48:57.907Z,46.60
2018-08-13T14:51:26.159Z,44.90
2018-08-13T14:53:54.409Z,44.50
2018-08-13T14:56:22.656Z,46.00
2018-08-13T14:58:51.628Z,46.90
2018-08-13T15:01:19.894Z,47.00
2018-08-13T15:03:48.158Z,46.80
2018-08-13T15:06:16.433Z,45.70
2018-08-13T15:08:44.670Z,45.00
2018-08-13T15:11:12.962Z,46.30
2018-08-13T15:13:41.196Z,45.80
2018-08-13T15:16:09.430Z,45.70
2018-08-13T15:18:37.676Z,44.70
2018-08-13T15:21:05.936Z,47.70
2018-08-13T15:23:34.175Z,45.50
2018-08-13T15:26:02.390Z,45.70
2018-08-13T15:28:31.898Z,45.40
2018-08-13T15:31:00.926Z,47.90
2018-08-13T15:33:29.460Z,47.50
2018-08-13T15:35:57.568Z,49.60
2018-08-13T15:38:26.537Z,49.60
2018-08-13T15:40:55.582Z,47.40
2018-08-13T15:43:23.796Z,46.80
2018-08-13T15:45:52.066Z,48.30
2018-08-13T15:48:20.324Z,48.10
2018-08-13T15:50:48.551Z,49.80
2018-08-13T15:53:17.524Z,46.50
2018-08-13T15:55:47.240Z,49.40
2018-08-13T15:58:16.236Z,48.90
2018-08-13T16:00:45.219Z,47.30
2018-08-13T16:03:14.219Z,49.40
2018-08-13T16:05:43.242Z,49.10
2018-08-13T16:08:11.527Z,49.10
2018-08-13T16:10:40.491Z,50.20
2018-08-13T16:13:09.523Z,50.30
2018-08-13T16:15:37.826Z,50.20
2018-08-13T16:18:06.010Z,48.40
2018-08-13T16:20:34.285Z,47.60
2018-08-13T16:23:02.507Z,48.10
2018-08-13T16:25:30.775Z,49.80
2018-08-13T16:27:59.776Z,49.70
2018-08-13T16:30:28.752Z,49.90
2018-08-13T16:32:57.791Z,49.80
2018-08-13T16:35:26.026Z,49.80
2018-08-13T16:37:54.241Z,49.00
2018-08-13T16:40:22.491Z,47.60
2018-08-13T16:42:51.510Z,49.70
2018-08-13T16:45:19.758Z,49.70
2018-08-13T16:47:48.735Z,49.90
2018-08-13T16:50:17.034Z,49.90
2018-08-13T16:52:46.011Z,47.90
2018-08-13T16:55:14.233Z,47.80
2018-08-13T16:57:42.489Z,49.10
2018-08-13T17:00:11.486Z,47.00
2018-08-13T17:02:40.622Z,46.30
2018-08-13T17:05:08.742Z,46.30
2018-08-13T17:07:37.784Z,46.50
2018-08-13T17:10:06.043Z,46.50
2018-08-13T17:12:34.276Z,45.80
2018-08-13T17:15:03.297Z,46.50
2018-08-13T17:17:32.263Z,47.40
2018-08-13T17:20:00.818Z,47.30
2018-08-13T17:22:29.034Z,47.10
2018-08-13T17:24:58.096Z,46.30
2018-08-13T17:27:27.021Z,47.20
2018-08-13T17:29:55.240Z,47.10
2018-08-13T17:32:23.464Z,48.40
2018-08-13T17:34:52.461Z,46.90
2018-08-13T17:37:21.482Z,46.00
2018-08-13T17:39:49.702Z,46.00
2018-08-13T17:42:17.916Z,46.40
2018-08-13T17:44:46.970Z,48.20
2018-08-13T17:47:15.973Z,45.80
2018-08-13T17:49:44.204Z,46.10
2018-08-13T17:52:12.451Z,47.50
2018-08-13T17:54:40.716Z,47.20
2018-08-13T17:57:08.914Z,48.30
2018-08-13T17:59:37.990Z,46.40
2018-08-13T18:02:06.239Z,46.40
2018-08-13T18:04:34.492Z,46.50
2018-08-13T18:07:02.823Z,47.40
2018-08-13T18:09:31.066Z,46.00
2018-08-13T18:11:59.362Z,48.60
2018-08-13T18:14:27.589Z,47.60
2018-08-13T18:16:55.814Z,47.50
2018-08-13T18:19:24.046Z,49.00
2018-08-13T18:21:52.320Z,48.90
2018-08-13T18:24:20.591Z,47.10
2018-08-13T18:26:49.589Z,48.40
2018-08-13T18:29:17.867Z,48.40
2018-08-13T18:31:46.063Z,47.80
2018-08-13T18:34:14.344Z,47.90
2018-08-13T18:36:42.564Z,49.90
2018-08-13T18:39:11.668Z,49.10
2018-08-13T18:41:39.859Z,49.10
2018-08-13T18:44:08.089Z,51.00
2018-08-13T18:46:37.132Z,50.50
2018-08-13T18:49:05.347Z,50.40
2018-08-13T18:51:33.633Z,51.20
2018-08-13T18:54:01.854Z,49.80
2018-08-13T18:56:30.096Z,49.90
2018-08-13T18:58:58.313Z,49.70
2018-08-13T19:01:26.569Z,48.60
2018-08-13T19:03:54.834Z,47.30
2018-08-13T19:06:23.040Z,47.60
2018-08-13T19:08:51.274Z,47.20
2018-08-13T19:11:19.531Z,46.70
2018-08-13T19:13:47.752Z,47.80
2018-08-13T19:16:16.795Z,47.60
2018-08-13T19:18:45.061Z,47.60
2018-08-13T19:21:13.344Z,52.90
2018-08-13T19:23:42.565Z,50.70
2018-08-13T19:26:10.785Z,51.20
2018-08-13T19:28:39.804Z,61.20
2018-08-13T19:31:08.087Z,61.50
2018-08-13T19:33:36.312Z,55.60
2018-08-13T19:36:04.614Z,60.70
2018-08-13T19:38:33.606Z,58.20
2018-08-13T19:41:01.836Z,58.00
2018-08-13T19:43:30.052Z,52.60
2018-08-13T19:45:58.319Z,52.00
2018-08-13T19:48:26.539Z,52.70
2018-08-13T19:50:54.756Z,51.00
2018-08-13T19:53:23.002Z,53.20
2018-08-13T19:55:51.214Z,56.90
2018-08-13T19:58:19.460Z,52.90
2018-08-13T20:00:47.685Z,52.30
2018-08-13T20:03:16.661Z,51.70
2018-08-13T20:05:44.916Z,51.70
2018-08-13T20:08:13.122Z,51.30
2018-08-13T20:10:41.373Z,51.10
2018-08-13T20:13:09.641Z,62.70
2018-08-13T20:15:38.628Z,55.20
2018-08-13T20:18:06.878Z,55.10
2018-08-13T20:20:35.117Z,65.80
2018-08-13T20:23:03.378Z,67.30
2018-08-13T20:25:31.647Z,62.00
2018-08-13T20:27:59.972Z,63.50
2018-08-13T20:30:28.932Z,62.20
2018-08-13T20:32:57.152Z,62.30
2018-08-13T20:35:25.406Z,68.20
2018-08-13T20:37:53.668Z,64.20
2018-08-13T20:40:21.898Z,59.60
2018-08-13T20:42:50.159Z,68.00
2018-08-13T20:45:18.397Z,62.50
2018-08-13T20:47:46.654Z,76.20
2018-08-13T20:50:14.938Z,60.30
2018-08-13T20:52:43.173Z,61.30
2018-08-13T20:55:11.400Z,60.10
2018-08-13T20:57:39.627Z,67.90
2018-08-13T21:00:07.898Z,71.70
2018-08-13T21:02:36.124Z,72.30
2018-08-13T21:05:04.376Z,79.80
2018-08-13T21:07:32.629Z,61.10
2018-08-13T21:10:00.876Z,59.60
2018-08-13T21:12:29.876Z,84.40
2018-08-13T21:14:58.897Z,70.60
2018-08-13T21:17:27.106Z,70.10
2018-08-13T21:19:55.394Z,71.20
2018-08-13T21:22:23.598Z,83.20
2018-08-13T21:24:52.604Z,66.00
2018-08-13T21:27:20.865Z,65.90
2018-08-13T21:29:49.850Z,86.20
2018-08-13T21:32:18.123Z,86.50
2018-08-13T21:34:46.387Z,82.90
2018-08-13T21:37:14.730Z,83.80
2018-08-13T21:39:43.669Z,63.60
2018-08-13T21:42:11.958Z,63.40
2018-08-13T21:44:40.169Z,61.70
2018-08-13T21:47:08.437Z,64.60
2018-08-13T21:49:37.431Z,59.50
2018-08-13T21:52:05.658Z,59.50
2018-08-13T21:54:33.936Z,63.50
2018-08-13T21:57:02.193Z,59.50
2018-08-13T21:59:30.451Z,59.00
2018-08-13T22:01:58.701Z,58.40
2018-08-13T22:04:27.690Z,57.80
2018-08-13T22:06:56.688Z,58.50
2018-08-13T22:09:25.665Z,57.50
2018-08-13T22:11:53.920Z,57.60
2018-08-13T22:14:22.194Z,62.90
2018-08-13T22:16:50.403Z,66.60
2018-08-13T22:19:19.435Z,68.50
2018-08-13T22:21:47.641Z,68.10
2018-08-13T22:27:28.196Z,90.90
2018-08-13T22:29:56.413Z,69.50
2018-08-13T22:32:24.642Z,72.40
2018-08-13T22:34:52.883Z,91.40
2018-08-13T22:37:21.134Z,74.20
2018-08-13T22:39:50.148Z,91.80
2018-08-13T22:42:18.360Z,91.90
2018-08-13T22:44:46.576Z,95.50
2018-08-13T22:47:14.796Z,97.60
2018-08-13T22:49:43.788Z,93.40
2018-08-13T22:52:12.872Z,95.60
2018-08-13T22:54:41.792Z,81.20
2018-08-13T22:57:10.057Z,81.00
2018-08-13T22:59:39.015Z,77.40
2018-08-13T23:02:07.312Z,77.60
2018-08-13T23:04:35.556Z,89.50
2018-08-13T23:07:03.760Z,86.90
2018-08-13T23:09:32.036Z,70.60
2018-08-13T23:12:00.253Z,68.30
2018-08-13T23:14:28.525Z,65.00
2018-08-13T23:16:56.762Z,74.20
2018-08-13T23:19:25.043Z,64.30
2018-08-13T23:21:53.247Z,86.80
2018-08-13T23:24:21.475Z,65.60
2018-08-13T23:26:49.710Z,74.00
2018-08-13T23:29:17.961Z,68.40
2018-08-13T23:31:46.984Z,63.90
2018-08-13T23:34:15.187Z,64.70
2018-08-13T23:36:43.436Z,63.60
2018-08-13T23:39:11.646Z,63.30
2018-08-13T23:41:39.861Z,64.70
2018-08-13T23:44:08.903Z,66.40
2018-08-13T23:46:37.113Z,66.30
2018-08-13T23:49:05.381Z,62.30
2018-08-13T23:51:33.616Z,87.10
2018-08-13T23:54:01.888Z,68.00
2018-08-13T23:56:30.090Z,72.80
2018-08-13T23:58:58.343Z,70.40
